»·PEaware :: N50TC KVNY-PHNL

N50TC :: KVNY-PHNL

FLIGHT INFORMATION

Flight Status: Arrived
Operator: Privately registered:
United States
More flights under this callsign
Pilot: Steven R. (3445)
Aircraft: BOEING 737-700
(B737)
More flights by this aircraft type
Origin: KVNY Van Nuys
United States
Destination: PHNL Honolulu Intl
United States
More flights between these airports :: More routes between these airports
Route: CANOG1 FIM RZS C1176 DINTY R576 DRAYK DENNS MAGGI3
File this flight plan on PilotEdge
Remarks:
Altitude:
(Current/Filed)
38,000ft
Speed:
(Current/Filed)
461kts
Departed: 10-Jun-14 02:00 PM
Arrived: 10-Jun-14 07:16 PM
Distance/Time
Traveled:
2215nm/5:16
Distance/Time
To Go:
Arrived

Flight Plot

Page will automatically refresh every two minutes.


Map Options




Map Legend


Flown Route
Filed Route
Departure Airport
Arrival Airport
Navaid (VOR, NDB)
Fix

Horizontal Profiles

Position Reports

Time Latitude Longitude Heading Altitude Ground
Speed
10-Jun-14 13:07 34.199849 -118.488052 89 809ft 0kts
10-Jun-14 13:08 34.199849 -118.488052 89 809ft 0kts
10-Jun-14 13:09 34.199849 -118.488052 89 809ft 0kts
10-Jun-14 13:10 34.199849 -118.488052 89 809ft 0kts
10-Jun-14 13:11 34.199849 -118.488052 89 809ft 0kts
10-Jun-14 13:12 34.199849 -118.488052 89 809ft 0kts
10-Jun-14 13:13 34.199849 -118.488052 89 810ft 0kts
10-Jun-14 13:14 34.199849 -118.488052 89 810ft 0kts
10-Jun-14 13:15 34.199849 -118.488052 89 810ft 0kts
10-Jun-14 13:16 34.199849 -118.488052 89 810ft 0kts
10-Jun-14 13:17 34.199849 -118.488052 89 810ft 0kts
10-Jun-14 13:18 34.199849 -118.488052 89 810ft 0kts
10-Jun-14 13:19 34.199849 -118.488052 89 810ft 0kts
10-Jun-14 13:20 34.199849 -118.488052 89 810ft 0kts
10-Jun-14 13:21 34.199849 -118.488052 89 810ft 0kts
10-Jun-14 13:22 34.199849 -118.488052 89 810ft 0kts
10-Jun-14 13:23 34.199849 -118.488052 89 810ft 0kts
10-Jun-14 13:24 34.199849 -118.488052 89 810ft 0kts
10-Jun-14 13:25 34.199849 -118.488052 89 810ft 0kts
10-Jun-14 13:26 34.199849 -118.488052 89 810ft 0kts
10-Jun-14 13:27 34.199849 -118.488052 89 810ft 0kts
10-Jun-14 13:28 34.199849 -118.488052 89 810ft 0kts
10-Jun-14 13:29 34.199849 -118.488052 89 810ft 0kts
10-Jun-14 13:30 34.199849 -118.488052 89 810ft 0kts
10-Jun-14 13:31 34.199849 -118.488052 89 810ft 0kts
10-Jun-14 13:32 34.199849 -118.488052 89 810ft 0kts
10-Jun-14 13:33 34.199849 -118.488052 89 810ft 0kts
10-Jun-14 13:34 34.199849 -118.488052 89 810ft 0kts
10-Jun-14 13:35 34.199849 -118.488052 89 810ft 0kts
10-Jun-14 13:36 34.199849 -118.488052 89 810ft 0kts
10-Jun-14 13:37 34.199849 -118.488052 89 810ft 0kts
10-Jun-14 13:38 34.199849 -118.488052 89 810ft 0kts
10-Jun-14 13:39 34.199849 -118.488052 89 810ft 0kts
10-Jun-14 13:40 34.199849 -118.488052 89 810ft 0kts
10-Jun-14 13:41 34.199849 -118.488052 89 810ft 0kts
10-Jun-14 13:42 34.199849 -118.488052 89 810ft 0kts
10-Jun-14 13:43 34.199849 -118.488052 89 810ft 0kts
10-Jun-14 13:44 34.199849 -118.488052 89 810ft 0kts
10-Jun-14 13:45 34.199849 -118.488052 89 810ft 0kts
10-Jun-14 13:46 34.199849 -118.488052 89 810ft 0kts
10-Jun-14 13:47 34.199849 -118.488052 89 810ft 0kts
10-Jun-14 13:48 34.199849 -118.488052 89 810ft 0kts
10-Jun-14 13:49 34.199849 -118.488051 89 810ft 0kts
10-Jun-14 13:50 34.199993 -118.487964 316 810ft 2kts
10-Jun-14 13:51 34.200374 -118.488538 341 810ft 14kts
10-Jun-14 13:52 34.205521 -118.488397 2 810ft 15kts
10-Jun-14 13:53 34.210223 -118.488387 355 810ft 14kts
10-Jun-14 13:54 34.213653 -118.488755 356 810ft 14kts
10-Jun-14 13:55 34.216973 -118.489325 352 810ft 8kts
10-Jun-14 13:56 34.218846 -118.489606 326 810ft 0kts
10-Jun-14 13:57 34.218846 -118.490933 249 810ft 11kts
10-Jun-14 13:58 34.188418 -118.489285 180 1670ft 181kts
10-Jun-14 13:59 34.153501 -118.521797 222 3885ft 230kts
10-Jun-14 14:00 34.101139 -118.583242 223 6651ft 279kts
10-Jun-14 14:01 34.116482 -118.665260 322 10487ft 306kts
10-Jun-14 14:02 34.191879 -118.730908 322 12708ft 370kts
10-Jun-14 14:03 34.281498 -118.809468 322 14467ft 409kts
10-Jun-14 14:04 34.342616 -118.924373 279 16129ft 416kts
10-Jun-14 14:05 34.370305 -119.062577 279 18140ft 421kts
10-Jun-14 14:06 34.397975 -119.202568 280 20498ft 434kts
10-Jun-14 14:07 34.426307 -119.345665 280 22885ft 433kts
10-Jun-14 14:08 34.455141 -119.490398 282 24298ft 449kts
10-Jun-14 14:09 34.484322 -119.640507 282 25485ft 460kts
10-Jun-14 14:10 34.495084 -119.793644 256 27003ft 454kts
10-Jun-14 14:11 34.450306 -119.936461 249 28614ft 454kts
10-Jun-14 14:12 34.401055 -120.077628 249 29931ft 454kts
10-Jun-14 14:13 34.351720 -120.218015 249 31007ft 458kts
10-Jun-14 14:14 34.300657 -120.362703 250 31774ft 466kts
10-Jun-14 14:15 34.249824 -120.505601 249 33134ft 450kts
10-Jun-14 14:16 34.200733 -120.642690 249 34938ft 439kts
10-Jun-14 14:17 34.151803 -120.778786 249 36049ft 443kts
10-Jun-14 14:18 34.103814 -120.911707 247 37812ft 421kts
10-Jun-14 14:19 34.056180 -121.042965 248 37930ft 427kts
10-Jun-14 14:20 34.008296 -121.174495 247 37929ft 426kts
10-Jun-14 14:21 33.960419 -121.305488 247 37930ft 426kts
10-Jun-14 14:22 33.912384 -121.436397 247 37929ft 426kts
10-Jun-14 14:23 33.864194 -121.567126 247 37929ft 426kts
10-Jun-14 14:24 33.815849 -121.697742 247 37929ft 426kts
10-Jun-14 14:25 33.767309 -121.828417 247 37952ft 425kts
10-Jun-14 14:26 33.718793 -121.958508 247 37959ft 425kts
10-Jun-14 14:27 33.670164 -122.088392 247 37962ft 425kts
10-Jun-14 14:28 33.621405 -122.218115 247 37971ft 426kts
10-Jun-14 14:29 33.572655 -122.347952 247 37979ft 426kts
10-Jun-14 14:30 33.523460 -122.477487 246 37979ft 426kts
10-Jun-14 14:31 33.477955 -122.609120 255 37961ft 425kts
10-Jun-14 14:32 33.449235 -122.746716 256 37959ft 424kts
10-Jun-14 14:33 33.420617 -122.884105 256 37952ft 423kts
10-Jun-14 14:34 33.392038 -123.021279 256 37950ft 424kts
10-Jun-14 14:35 33.363656 -123.157974 256 37949ft 424kts
10-Jun-14 14:36 33.334766 -123.295556 256 37979ft 423kts
10-Jun-14 14:37 33.305733 -123.432535 256 37997ft 424kts
10-Jun-14 14:38 33.276581 -123.569387 256 37999ft 424kts
10-Jun-14 14:39 33.247278 -123.706154 256 37999ft 425kts
10-Jun-14 14:40 33.217672 -123.843445 256 38000ft 425kts
10-Jun-14 14:41 33.188030 -123.980177 256 38009ft 424kts
10-Jun-14 14:42 33.163216 -124.093980 256 38010ft 424kts
10-Jun-14 14:43 33.133606 -124.230181 256 38009ft 422kts
10-Jun-14 14:44 33.103415 -124.366937 255 38036ft 425kts
10-Jun-14 14:45 33.072964 -124.503860 255 38058ft 426kts
10-Jun-14 14:46 33.042305 -124.640497 255 38059ft 426kts
10-Jun-14 14:47 33.011418 -124.777031 254 38056ft 424kts
10-Jun-14 14:48 32.980541 -124.912505 255 38051ft 423kts
10-Jun-14 14:49 32.950100 -125.047967 255 38050ft 422kts
10-Jun-14 14:50 32.919325 -125.183329 254 38051ft 423kts
10-Jun-14 14:51 32.888301 -125.318729 254 38049ft 423kts
10-Jun-14 14:52 32.857079 -125.453996 254 38049ft 423kts
10-Jun-14 14:53 32.825765 -125.589084 254 38048ft 422kts
10-Jun-14 14:54 32.794188 -125.724275 254 38051ft 424kts
10-Jun-14 14:55 32.762483 -125.859517 254 38050ft 424kts
10-Jun-14 14:56 32.730616 -125.994640 254 38050ft 424kts
10-Jun-14 14:57 32.698609 -126.129744 254 38049ft 424kts
10-Jun-14 14:58 32.666433 -126.264795 254 38049ft 424kts
10-Jun-14 14:59 32.634122 -126.399649 254 38049ft 423kts
10-Jun-14 15:00 32.601606 -126.534702 254 38049ft 423kts
10-Jun-14 15:01 32.569060 -126.669192 254 38049ft 423kts
10-Jun-14 15:02 32.536375 -126.803568 254 38049ft 423kts
10-Jun-14 15:03 32.503120 -126.939601 253 38031ft 433kts
10-Jun-14 15:04 32.469414 -127.076735 253 38029ft 432kts
10-Jun-14 15:05 32.435591 -127.213630 253 38032ft 433kts
10-Jun-14 15:06 32.401559 -127.350672 253 38029ft 433kts
10-Jun-14 15:07 32.367403 -127.487586 253 38039ft 433kts
10-Jun-14 15:08 32.332936 -127.624986 253 38040ft 435kts
10-Jun-14 15:09 32.298318 -127.762344 253 38039ft 436kts
10-Jun-14 15:10 32.263219 -127.900900 253 38039ft 439kts
10-Jun-14 15:11 32.227964 -128.039277 253 38039ft 437kts
10-Jun-14 15:12 32.192630 -128.177298 253 38040ft 438kts
10-Jun-14 15:13 32.157227 -128.314907 253 38040ft 437kts
10-Jun-14 15:14 32.121673 -128.452475 253 38044ft 437kts
10-Jun-14 15:15 32.085981 -128.589901 253 38069ft 437kts
10-Jun-14 15:16 32.050127 -128.727147 253 38070ft 437kts
10-Jun-14 15:17 32.014160 -128.864301 253 38068ft 437kts
10-Jun-14 15:18 31.977964 -129.001504 253 38070ft 437kts
10-Jun-14 15:19 31.941548 -129.138993 253 38069ft 438kts
10-Jun-14 15:20 31.905105 -129.275853 253 38069ft 437kts
10-Jun-14 15:21 31.868572 -129.412425 253 38068ft 436kts
10-Jun-14 15:22 31.831893 -129.548874 253 38069ft 437kts
10-Jun-14 15:23 31.794986 -129.685540 252 38069ft 436kts
10-Jun-14 15:24 31.757980 -129.821844 252 38069ft 437kts
10-Jun-14 15:25 31.720878 -129.957913 252 38069ft 437kts
10-Jun-14 15:26 31.683633 -130.093957 252 38070ft 436kts
10-Jun-14 15:27 31.646239 -130.229837 252 38070ft 437kts
10-Jun-14 15:28 31.614949 -130.343084 252 38069ft 437kts
10-Jun-14 15:29 31.577254 -130.478885 252 38069ft 436kts
10-Jun-14 15:30 31.539260 -130.615075 252 38070ft 437kts
10-Jun-14 15:31 31.501283 -130.750690 252 38069ft 437kts
10-Jun-14 15:32 31.463021 -130.886613 252 38070ft 436kts
10-Jun-14 15:33 31.424770 -131.021906 252 38069ft 437kts
10-Jun-14 15:34 31.386374 -131.157113 252 38035ft 437kts
10-Jun-14 15:35 31.347863 -131.292205 252 38020ft 437kts
10-Jun-14 15:36 31.309176 -131.427255 252 38019ft 437kts
10-Jun-14 15:37 31.270365 -131.562100 252 38021ft 437kts
10-Jun-14 15:38 31.231262 -131.697364 252 38019ft 436kts
10-Jun-14 15:39 31.192333 -131.832011 252 38019ft 437kts
10-Jun-14 15:40 31.153066 -131.966668 252 38020ft 437kts
10-Jun-14 15:41 31.113546 -132.101206 251 38019ft 436kts
10-Jun-14 15:42 31.073886 -132.235585 251 38009ft 437kts
10-Jun-14 15:43 31.033814 -132.370302 251 38010ft 437kts
10-Jun-14 15:44 30.993729 -132.504377 251 38009ft 438kts
10-Jun-14 15:45 30.953281 -132.640999 250 38011ft 447kts
10-Jun-14 15:46 30.912341 -132.777954 250 38008ft 446kts
10-Jun-14 15:47 30.871207 -132.914766 250 38009ft 446kts
10-Jun-14 15:48 30.829919 -133.051438 249 38010ft 447kts
10-Jun-14 15:49 30.788449 -133.188019 249 38008ft 447kts
10-Jun-14 15:50 30.746819 -133.324521 249 38010ft 446kts
10-Jun-14 15:51 30.705052 -133.460965 249 38010ft 446kts
10-Jun-14 15:52 30.663211 -133.597073 249 38009ft 446kts
10-Jun-14 15:53 30.621253 -133.732944 249 38009ft 446kts
10-Jun-14 15:54 30.579134 -133.868751 249 38009ft 446kts
10-Jun-14 15:55 30.536898 -134.004362 249 38009ft 446kts
10-Jun-14 15:56 30.494625 -134.139533 249 38009ft 446kts
10-Jun-14 15:57 30.451956 -134.275400 249 38009ft 446kts
10-Jun-14 15:58 30.409279 -134.410731 249 38009ft 446kts
10-Jun-14 15:59 30.366472 -134.545918 249 38009ft 446kts
10-Jun-14 16:00 30.323368 -134.681482 249 38011ft 446kts
10-Jun-14 16:01 30.280275 -134.816455 249 38019ft 446kts
10-Jun-14 16:02 30.237030 -134.951353 248 38019ft 446kts
10-Jun-14 16:03 30.193694 -135.085996 248 38019ft 446kts
10-Jun-14 16:04 30.150167 -135.220671 248 38019ft 446kts
10-Jun-14 16:05 30.106529 -135.355150 248 38019ft 446kts
10-Jun-14 16:06 30.063041 -135.488626 248 38019ft 446kts
10-Jun-14 16:07 30.018807 -135.623813 248 38020ft 447kts
10-Jun-14 16:08 29.974658 -135.758264 248 38019ft 447kts
10-Jun-14 16:09 29.930457 -135.892436 248 38019ft 446kts
10-Jun-14 16:10 29.886094 -136.026428 248 38021ft 446kts
10-Jun-14 16:11 29.841553 -136.160393 248 38020ft 447kts
10-Jun-14 16:12 29.796940 -136.294102 248 38019ft 446kts
10-Jun-14 16:13 29.759728 -136.405214 248 38020ft 447kts
10-Jun-14 16:14 29.714719 -136.539137 248 38020ft 446kts
10-Jun-14 16:15 29.669689 -136.672676 248 38019ft 446kts
10-Jun-14 16:16 29.624562 -136.805927 248 38020ft 446kts
10-Jun-14 16:17 29.579368 -136.938913 248 38021ft 445kts
10-Jun-14 16:18 29.534036 -137.071703 247 38019ft 444kts
10-Jun-14 16:19 29.488718 -137.204034 247 38019ft 444kts
10-Jun-14 16:20 29.443389 -137.335844 247 38020ft 444kts
10-Jun-14 16:21 29.397948 -137.467496 247 38019ft 445kts
10-Jun-14 16:22 29.351762 -137.600818 247 38019ft 445kts
10-Jun-14 16:23 29.305834 -137.732852 247 38010ft 444kts
10-Jun-14 16:24 29.259852 -137.864647 247 38019ft 444kts
10-Jun-14 16:25 29.213750 -137.996301 247 38020ft 445kts
10-Jun-14 16:26 29.167476 -138.127897 247 38020ft 444kts
10-Jun-14 16:27 29.121099 -138.259284 247 38019ft 444kts
10-Jun-14 16:28 29.074574 -138.390614 247 38019ft 445kts
10-Jun-14 16:29 29.027911 -138.521887 247 38000ft 445kts
10-Jun-14 16:30 28.981147 -138.652918 247 38000ft 444kts
10-Jun-14 16:31 28.934430 -138.783481 247 37999ft 444kts
10-Jun-14 16:32 28.887229 -138.914769 247 38001ft 444kts
10-Jun-14 16:33 28.840095 -139.045504 247 38000ft 445kts
10-Jun-14 16:34 28.792973 -139.176237 247 37999ft 445kts
10-Jun-14 16:35 28.745484 -139.306765 246 38000ft 445kts
10-Jun-14 16:36 28.697738 -139.437496 246 38000ft 444kts
10-Jun-14 16:37 28.650159 -139.566678 246 37999ft 445kts
10-Jun-14 16:38 28.601739 -139.697543 246 37999ft 444kts
10-Jun-14 16:39 28.553721 -139.827378 246 37999ft 444kts
10-Jun-14 16:40 28.506316 -139.955789 246 37999ft 444kts
10-Jun-14 16:41 28.457704 -140.086652 246 37999ft 444kts
10-Jun-14 16:42 28.409274 -140.216412 245 37999ft 445kts
10-Jun-14 16:43 28.360724 -140.345997 245 37999ft 445kts
10-Jun-14 16:44 28.312197 -140.475066 245 37999ft 445kts
10-Jun-14 16:45 28.263067 -140.605285 245 38017ft 445kts
10-Jun-14 16:46 28.214142 -140.734516 245 38019ft 445kts
10-Jun-14 16:47 28.165080 -140.863684 245 38019ft 445kts
10-Jun-14 16:48 28.115902 -140.992705 245 38019ft 445kts
10-Jun-14 16:49 28.066447 -141.122024 245 38019ft 445kts
10-Jun-14 16:50 28.016866 -141.251225 245 38019ft 445kts
10-Jun-14 16:51 27.967355 -141.379822 245 38020ft 444kts
10-Jun-14 16:52 27.917777 -141.508154 245 38019ft 443kts
10-Jun-14 16:53 27.868370 -141.635621 245 38019ft 442kts
10-Jun-14 16:54 27.818874 -141.762918 245 38019ft 441kts
10-Jun-14 16:55 27.769247 -141.890118 244 38019ft 441kts
10-Jun-14 16:56 27.719509 -142.017191 244 38019ft 441kts
10-Jun-14 16:57 27.677926 -142.123123 244 38019ft 441kts
10-Jun-14 16:58 27.619688 -142.270990 244 38019ft 441kts
10-Jun-14 16:59 27.577916 -142.376719 244 38019ft 441kts
10-Jun-14 17:00 27.527718 -142.503389 244 38019ft 441kts
10-Jun-14 17:01 27.477405 -142.629955 244 37985ft 441kts
10-Jun-14 17:02 27.427004 -142.756336 244 37969ft 441kts
10-Jun-14 17:03 27.376324 -142.883013 244 37969ft 441kts
10-Jun-14 17:04 27.325674 -143.009217 244 37969ft 441kts
10-Jun-14 17:05 27.274935 -143.135247 244 37969ft 441kts
10-Jun-14 17:06 27.224062 -143.261212 244 37969ft 441kts
10-Jun-14 17:07 27.173086 -143.387039 243 37969ft 441kts
10-Jun-14 17:08 27.121997 -143.512753 243 37969ft 441kts
10-Jun-14 17:09 27.070970 -143.637920 243 37969ft 439kts
10-Jun-14 17:10 27.019904 -143.762815 243 37960ft 440kts
10-Jun-14 17:11 26.968668 -143.887761 243 37960ft 440kts
10-Jun-14 17:12 26.917302 -144.012535 243 37960ft 440kts
10-Jun-14 17:13 26.865885 -144.137219 243 37959ft 440kts
10-Jun-14 17:14 26.814101 -144.262339 243 37960ft 439kts
10-Jun-14 17:15 26.762433 -144.386764 243 37959ft 441kts
10-Jun-14 17:16 26.710634 -144.511130 243 37960ft 441kts
10-Jun-14 17:17 26.658732 -144.635456 243 37959ft 440kts
10-Jun-14 17:18 26.606725 -144.759567 243 37960ft 440kts
10-Jun-14 17:19 26.554441 -144.883985 243 37960ft 440kts
10-Jun-14 17:20 26.502265 -145.007777 243 37959ft 439kts
10-Jun-14 17:21 26.450031 -145.131346 243 37959ft 439kts
10-Jun-14 17:22 26.397680 -145.254832 243 37959ft 439kts
10-Jun-14 17:23 26.345218 -145.378231 243 37959ft 439kts
10-Jun-14 17:24 26.292658 -145.501502 243 37959ft 439kts
10-Jun-14 17:25 26.240006 -145.624630 243 37960ft 440kts
10-Jun-14 17:26 26.187072 -145.748034 242 37958ft 440kts
10-Jun-14 17:27 26.134234 -145.871201 243 37960ft 439kts
10-Jun-14 17:28 26.081196 -145.994287 242 37959ft 440kts
10-Jun-14 17:29 26.027056 -146.119169 243 37959ft 455kts
10-Jun-14 17:30 25.972151 -146.245675 243 37984ft 454kts
10-Jun-14 17:31 25.917048 -146.372099 243 37990ft 454kts
10-Jun-14 17:32 25.861811 -146.498393 243 37990ft 454kts
10-Jun-14 17:33 25.806827 -146.624755 243 37990ft 453kts
10-Jun-14 17:34 25.751577 -146.751064 243 37989ft 454kts
10-Jun-14 17:35 25.696257 -146.877110 243 37989ft 453kts
10-Jun-14 17:36 25.640603 -147.003406 243 37990ft 453kts
10-Jun-14 17:37 25.584995 -147.129200 243 37989ft 453kts
10-Jun-14 17:38 25.529301 -147.254832 243 37990ft 453kts
10-Jun-14 17:39 25.473486 -147.380428 243 37988ft 454kts
10-Jun-14 17:40 25.417307 -147.506370 243 37989ft 453kts
10-Jun-14 17:41 25.361290 -147.631695 243 37991ft 453kts
10-Jun-14 17:42 25.305114 -147.756996 243 37990ft 454kts
10-Jun-14 17:43 25.258216 -147.861379 243 37990ft 454kts
10-Jun-14 17:44 25.192490 -148.007169 243 37990ft 453kts
10-Jun-14 17:45 25.145426 -148.111327 243 37990ft 453kts
10-Jun-14 17:46 25.088850 -148.236180 243 37990ft 454kts
10-Jun-14 17:47 25.032199 -148.360860 243 37990ft 454kts
10-Jun-14 17:48 24.975465 -148.485347 243 37990ft 451kts
10-Jun-14 17:49 24.919209 -148.608468 243 37988ft 449kts
10-Jun-14 17:50 24.862818 -148.731599 243 37987ft 449kts
10-Jun-14 17:51 24.806293 -148.854589 243 37989ft 449kts
10-Jun-14 17:52 24.749655 -148.977532 243 37990ft 449kts
10-Jun-14 17:53 24.693003 -149.100182 243 37990ft 448kts
10-Jun-14 17:54 24.635883 -149.223552 244 37990ft 454kts
10-Jun-14 17:55 24.578425 -149.347293 244 37989ft 454kts
10-Jun-14 17:56 24.520864 -149.470946 244 37990ft 453kts
10-Jun-14 17:57 24.463323 -149.594215 244 37989ft 453kts
10-Jun-14 17:58 24.405595 -149.717549 244 37989ft 453kts
10-Jun-14 17:59 24.347818 -149.840669 244 37989ft 453kts
10-Jun-14 18:00 24.289945 -149.963667 244 37989ft 453kts
10-Jun-14 18:01 24.231762 -150.086999 244 37989ft 453kts
10-Jun-14 18:02 24.173666 -150.209817 244 37989ft 453kts
10-Jun-14 18:03 24.115482 -150.332522 244 37989ft 453kts
10-Jun-14 18:04 24.057197 -150.455098 244 37986ft 453kts
10-Jun-14 18:05 23.998750 -150.577710 244 37979ft 454kts
10-Jun-14 18:06 23.940122 -150.700397 244 37979ft 454kts
10-Jun-14 18:07 23.881354 -150.823044 243 37979ft 454kts
10-Jun-14 18:08 23.822296 -150.945989 243 37979ft 454kts
10-Jun-14 18:09 23.763341 -151.068406 243 37979ft 454kts
10-Jun-14 18:10 23.704310 -151.190672 243 37979ft 454kts
10-Jun-14 18:11 23.645161 -151.312868 243 37979ft 454kts
10-Jun-14 18:12 23.585919 -151.434948 243 37979ft 454kts
10-Jun-14 18:13 23.526584 -151.556916 243 37979ft 454kts
10-Jun-14 18:14 23.467121 -151.678846 243 37979ft 454kts
10-Jun-14 18:15 23.407604 -151.800583 243 37979ft 454kts
10-Jun-14 18:16 23.347963 -151.922269 243 37979ft 454kts
10-Jun-14 18:17 23.288233 -152.043845 243 37979ft 454kts
10-Jun-14 18:18 23.228216 -152.165703 243 37979ft 454kts
10-Jun-14 18:19 23.168374 -152.287072 243 37979ft 454kts
10-Jun-14 18:20 23.108205 -152.408756 243 37997ft 454kts
10-Jun-14 18:21 23.048051 -152.529822 243 38019ft 455kts
10-Jun-14 18:22 22.987388 -152.651153 243 38019ft 455kts
10-Jun-14 18:23 22.926662 -152.771773 243 38020ft 455kts
10-Jun-14 18:24 22.865694 -152.892621 242 38018ft 456kts
10-Jun-14 18:25 22.804941 -153.013477 243 38020ft 455kts
10-Jun-14 18:26 22.744021 -153.134058 243 38020ft 456kts
10-Jun-14 18:27 22.693058 -153.234659 242 38019ft 456kts
10-Jun-14 18:28 22.631902 -153.355096 242 38018ft 455kts
10-Jun-14 18:29 22.560456 -153.495431 242 38020ft 455kts
10-Jun-14 18:30 22.509404 -153.595645 242 38010ft 455kts
10-Jun-14 18:31 22.448013 -153.715794 242 38009ft 456kts
10-Jun-14 18:32 22.386483 -153.835841 244 38008ft 454kts
10-Jun-14 18:33 22.365097 -153.967720 272 38009ft 448kts
10-Jun-14 18:34 22.367922 -154.102568 272 38009ft 448kts
10-Jun-14 18:35 22.370540 -154.237381 272 38009ft 448kts
10-Jun-14 18:36 22.373371 -154.372296 272 38009ft 448kts
10-Jun-14 18:37 22.375960 -154.507188 272 38009ft 448kts
10-Jun-14 18:38 22.378384 -154.642029 272 38009ft 448kts
10-Jun-14 18:39 22.380679 -154.776930 272 38015ft 448kts
10-Jun-14 18:40 22.382867 -154.912337 272 38027ft 448kts
10-Jun-14 18:41 22.384919 -155.047205 272 38029ft 447kts
10-Jun-14 18:42 22.386843 -155.180542 274 38064ft 442kts
10-Jun-14 18:43 22.388666 -155.313283 274 38069ft 442kts
10-Jun-14 18:44 22.390390 -155.446853 274 38069ft 442kts
10-Jun-14 18:45 22.391987 -155.580061 274 38074ft 442kts
10-Jun-14 18:46 22.393477 -155.713409 274 38137ft 443kts
10-Jun-14 18:47 22.394870 -155.847227 273 38149ft 444kts
10-Jun-14 18:48 22.396299 -155.981021 273 38149ft 444kts
10-Jun-14 18:49 22.397395 -156.114869 274 38130ft 445kts
10-Jun-14 18:50 22.386418 -156.247882 251 38063ft 459kts
10-Jun-14 18:51 22.307977 -156.359658 234 38059ft 469kts
10-Jun-14 18:52 22.224735 -156.468138 234 38065ft 467kts
10-Jun-14 18:53 22.142251 -156.575196 234 35412ft 462kts
10-Jun-14 18:54 22.060311 -156.681570 233 32111ft 452kts
10-Jun-14 18:55 21.981131 -156.784277 234 29367ft 438kts
10-Jun-14 18:56 21.904316 -156.883412 234 26619ft 422kts
10-Jun-14 18:57 21.830419 -156.978622 232 23940ft 405kts
10-Jun-14 18:58 21.759365 -157.070077 233 21339ft 390kts
10-Jun-14 18:59 21.690907 -157.158076 230 18815ft 376kts
10-Jun-14 19:00 21.624483 -157.243376 230 16233ft 366kts
10-Jun-14 19:01 21.560069 -157.326390 231 13691ft 353kts
10-Jun-14 19:02 21.497917 -157.405998 231 11164ft 340kts
10-Jun-14 19:03 21.442826 -157.476426 230 10176ft 269kts
10-Jun-14 19:04 21.391463 -157.542023 230 8615ft 285kts
10-Jun-14 19:05 21.341065 -157.606284 229 7268ft 278kts
10-Jun-14 19:06 21.291110 -157.669904 229 6059ft 275kts
10-Jun-14 19:07 21.241496 -157.731947 228 5053ft 272kts
10-Jun-14 19:08 21.202118 -157.800548 239 4051ft 270kts
10-Jun-14 19:09 21.178370 -157.875271 270 3062ft 259kts
10-Jun-14 19:10 21.213861 -157.935842 320 2608ft 243kts
10-Jun-14 19:11 21.262452 -157.979693 348 1595ft 204kts
10-Jun-14 19:12 21.295069 -157.952923 55 616ft 130kts
10-Jun-14 19:13 21.314681 -157.925998 52 40ft 108kts
10-Jun-14 19:14 21.322111 -157.915037 158 21ft 8kts
10-Jun-14 19:15 21.320896 -157.913723 54 21ft 2kts
10-Jun-14 19:16 21.320901 -157.913715 54 21ft 0kts
10-Jun-14 19:17 21.320901 -157.913715 54 21ft 0kts
10-Jun-14 19:18 21.320901 -157.913715 54 21ft 0kts
10-Jun-14 19:19 21.320901 -157.913715 54 21ft 0kts

Navigation Log

Ident Type
1. KVNY Airport
2. FIM Navaid
3. RZS Navaid
4. DINTY Fix
5. DUETS Fix
6. DADIE Fix
7. DIALO Fix
8. DUSAC Fix
9. DRAYK Fix
10. DENNS Fix
11. SOLCE Fix
12. MAGGI Fix
13. BAMBO Fix
14. GRITL Fix
15. CKH Navaid
16. PHNL Airport